TimeMST,TemperatureF,Dew PointF,Humidity,Sea Level PressureIn,VisibilityMPH,Wind Direction,Wind SpeedMPH,Gust SpeedMPH,PrecipitationIn,Events,Conditions,WindDirDegrees,DateUTC
12:57 AM,64.0,12.9,14,30.23,10.0,North,8.1,-,N/A,,Clear,350,2014-01-15 07:57:00
1:57 AM,59.0,16.0,19,30.23,10.0,NNE,9.2,-,N/A,,Clear,30,2014-01-15 08:57:00
2:57 AM,53.1,19.0,26,30.24,10.0,East,3.5,-,N/A,,Clear,100,2014-01-15 09:57:00
3:57 AM,51.1,19.9,29,30.25,10.0,Calm,Calm,-,N/A,,Clear,0,2014-01-15 10:57:00
4:57 AM,51.1,21.0,31,30.25,10.0,NE,3.5,-,N/A,,Clear,40,2014-01-15 11:57:00
5:57 AM,50.0,21.0,32,30.25,10.0,NE,3.5,-,N/A,,Clear,50,2014-01-15 12:57:00
6:57 AM,54.0,18.0,24,30.26,10.0,NNE,5.8,-,N/A,,Clear,20,2014-01-15 13:57:00
7:57 AM,50.0,19.9,31,30.27,10.0,ENE,6.9,-,N/A,,Clear,60,2014-01-15 14:57:00
8:57 AM,55.9,21.9,27,30.29,10.0,ENE,3.5,-,N/A,,Clear,60,2014-01-15 15:57:00
9:57 AM,64.0,19.0,18,30.30,10.0,NNE,6.9,-,N/A,,Clear,30,2014-01-15 16:57:00
10:57 AM,73.0,19.0,13,30.29,10.0,NNE,11.5,-,N/A,,Clear,20,2014-01-15 17:57:00
11:57 AM,75.0,17.1,11,30.27,10.0,North,11.5,-,N/A,,Clear,360,2014-01-15 18:57:00
12:57 PM,77.0,16.0,10,30.23,10.0,NNE,13.8,-,N/A,,Clear,20,2014-01-15 19:57:00
1:57 PM,77.0,18.0,11,30.20,10.0,North,15.0,20.7,N/A,,Clear,360,2014-01-15 20:57:00
2:57 PM,78.1,17.1,10,30.18,10.0,North,11.5,-,N/A,,Clear,350,2014-01-15 21:57:00
3:57 PM,78.1,16.0,10,30.17,10.0,North,12.7,-,N/A,,Clear,360,2014-01-15 22:57:00
4:57 PM,77.0,18.0,11,30.16,10.0,North,10.4,-,N/A,,Clear,360,2014-01-15 23:57:00
5:57 PM,73.0,19.0,13,30.15,10.0,NNW,9.2,-,N/A,,Clear,340,2014-01-16 00:57:00
6:57 PM,69.1,19.9,15,30.15,10.0,NNW,5.8,-,N/A,,Clear,330,2014-01-16 01:57:00
7:57 PM,68.0,19.9,16,30.15,10.0,NNW,6.9,-,N/A,,Clear,340,2014-01-16 02:57:00
8:57 PM,66.0,19.9,17,30.15,10.0,North,6.9,-,N/A,,Clear,350,2014-01-16 03:57:00
9:57 PM,64.0,21.0,19,30.15,10.0,North,5.8,-,N/A,,Clear,360,2014-01-16 04:57:00
10:57 PM,54.0,25.0,33,30.15,10.0,Calm,Calm,-,N/A,,Clear,0,2014-01-16 05:57:00
11:57 PM,53.1,26.1,35,30.14,10.0,Calm,Calm,-,N/A,,Clear,0,2014-01-16 06:57:00